sensor_id;sensor_type;location;lat;lon;timestamp;P1;durP1;ratioP1;P2;durP2;ratioP2
26325;SDS011;14032;52.510;7.342;2022-12-07T00:00:28;34.97;;;18.63;;
26325;SDS011;14032;52.510;7.342;2022-12-07T00:02:53;31.08;;;17.60;;
26325;SDS011;14032;52.510;7.342;2022-12-07T00:05:19;25.92;;;16.17;;
26325;SDS011;14032;52.510;7.342;2022-12-07T00:07:45;26.67;;;15.75;;
26325;SDS011;14032;52.510;7.342;2022-12-07T00:10:10;30.95;;;15.25;;
26325;SDS011;14032;52.510;7.342;2022-12-07T00:12:36;24.00;;;13.77;;
26325;SDS011;14032;52.510;7.342;2022-12-07T00:15:01;27.42;;;13.95;;
26325;SDS011;14032;52.510;7.342;2022-12-07T00:17:27;23.27;;;13.63;;
26325;SDS011;14032;52.510;7.342;2022-12-07T00:19:53;26.67;;;13.90;;
26325;SDS011;14032;52.510;7.342;2022-12-07T00:22:18;23.98;;;13.23;;
26325;SDS011;14032;52.510;7.342;2022-12-07T00:24:44;21.42;;;13.70;;
26325;SDS011;14032;52.510;7.342;2022-12-07T00:27:09;26.77;;;12.63;;
26325;SDS011;14032;52.510;7.342;2022-12-07T00:29:35;19.17;;;12.70;;
26325;SDS011;14032;52.510;7.342;2022-12-07T00:32:02;23.33;;;12.52;;
26325;SDS011;14032;52.510;7.342;2022-12-07T00:34:28;23.95;;;12.23;;
26325;SDS011;14032;52.510;7.342;2022-12-07T00:36:53;21.60;;;11.95;;
26325;SDS011;14032;52.510;7.342;2022-12-07T00:39:19;28.20;;;10.88;;
26325;SDS011;14032;52.510;7.342;2022-12-07T00:41:45;25.73;;;12.02;;
26325;SDS011;14032;52.510;7.342;2022-12-07T00:44:11;22.42;;;10.65;;
26325;SDS011;14032;52.510;7.342;2022-12-07T00:46:37;23.17;;;10.95;;
26325;SDS011;14032;52.510;7.342;2022-12-07T00:49:02;20.48;;;10.57;;
26325;SDS011;14032;52.510;7.342;2022-12-07T00:51:28;18.75;;;10.52;;
26325;SDS011;14032;52.510;7.342;2022-12-07T00:53:54;20.38;;;10.38;;
26325;SDS011;14032;52.510;7.342;2022-12-07T00:56:23;17.92;;;10.00;;
26325;SDS011;14032;52.510;7.342;2022-12-07T00:58:54;27.00;;;9.70;;
26325;SDS011;14032;52.510;7.342;2022-12-07T01:01:22;15.75;;;8.02;;
26325;SDS011;14032;52.510;7.342;2022-12-07T01:03:48;15.82;;;7.50;;
26325;SDS011;14032;52.510;7.342;2022-12-07T01:06:15;18.83;;;7.72;;
26325;SDS011;14032;52.510;7.342;2022-12-07T01:08:41;18.40;;;7.95;;
26325;SDS011;14032;52.510;7.342;2022-12-07T01:11:07;24.05;;;7.32;;
26325;SDS011;14032;52.510;7.342;2022-12-07T01:13:36;20.23;;;7.00;;
26325;SDS011;14032;52.510;7.342;2022-12-07T01:16:03;15.57;;;6.35;;
26325;SDS011;14032;52.510;7.342;2022-12-07T01:18:30;10.90;;;5.97;;
26325;SDS011;14032;52.510;7.342;2022-12-07T01:23:25;15.93;;;5.88;;
26325;SDS011;14032;52.510;7.342;2022-12-07T01:25:57;15.98;;;5.93;;
26325;SDS011;14032;52.510;7.342;2022-12-07T01:28:25;19.05;;;5.35;;
26325;SDS011;14032;52.510;7.342;2022-12-07T01:30:58;14.90;;;5.45;;
26325;SDS011;14032;52.510;7.342;2022-12-07T01:33:26;13.15;;;5.10;;
26325;SDS011;14032;52.510;7.342;2022-12-07T01:35:53;14.50;;;5.18;;
26325;SDS011;14032;52.510;7.342;2022-12-07T01:38:18;21.85;;;5.13;;
26325;SDS011;14032;52.510;7.342;2022-12-07T01:40:44;15.55;;;4.45;;
26325;SDS011;14032;52.510;7.342;2022-12-07T01:43:15;13.85;;;4.65;;
26325;SDS011;14032;52.510;7.342;2022-12-07T01:45:44;17.70;;;4.30;;
26325;SDS011;14032;52.510;7.342;2022-12-07T01:48:10;14.07;;;3.67;;
26325;SDS011;14032;52.510;7.342;2022-12-07T01:50:38;16.88;;;3.85;;
26325;SDS011;14032;52.510;7.342;2022-12-07T01:53:07;12.80;;;4.38;;
26325;SDS011;14032;52.510;7.342;2022-12-07T01:55:36;12.43;;;4.43;;
26325;SDS011;14032;52.510;7.342;2022-12-07T01:58:05;10.48;;;3.40;;
26325;SDS011;14032;52.510;7.342;2022-12-07T02:00:31;13.60;;;5.25;;
26325;SDS011;14032;52.510;7.342;2022-12-07T02:03:04;13.38;;;4.07;;
26325;SDS011;14032;52.510;7.342;2022-12-07T02:05:41;12.25;;;3.47;;
26325;SDS011;14032;52.510;7.342;2022-12-07T02:08:08;12.57;;;3.92;;
26325;SDS011;14032;52.510;7.342;2022-12-07T02:10:35;14.90;;;3.45;;
26325;SDS011;14032;52.510;7.342;2022-12-07T02:13:15;15.07;;;3.33;;
26325;SDS011;14032;52.510;7.342;2022-12-07T02:27:07;16.48;;;3.08;;
26325;SDS011;14032;52.510;7.342;2022-12-07T02:29:55;13.82;;;2.47;;
26325;SDS011;14032;52.510;7.342;2022-12-07T02:32:40;11.13;;;2.50;;
26325;SDS011;14032;52.510;7.342;2022-12-07T02:35:22;11.55;;;2.58;;
26325;SDS011;14032;52.510;7.342;2022-12-07T02:40:38;17.88;;;2.83;;
26325;SDS011;14032;52.510;7.342;2022-12-07T02:43:12;14.60;;;2.42;;
26325;SDS011;14032;52.510;7.342;2022-12-07T02:46:16;10.90;;;2.28;;
26325;SDS011;14032;52.510;7.342;2022-12-07T02:48:46;13.75;;;3.15;;
26325;SDS011;14032;52.510;7.342;2022-12-07T02:51:12;14.80;;;2.70;;
26325;SDS011;14032;52.510;7.342;2022-12-07T02:53:40;17.33;;;2.88;;
26325;SDS011;14032;52.510;7.342;2022-12-07T02:56:20;12.52;;;2.60;;
26325;SDS011;14032;52.510;7.342;2022-12-07T02:59:02;18.83;;;2.50;;
26325;SDS011;14032;52.510;7.342;2022-12-07T03:08:14;17.48;;;3.55;;
26325;SDS011;14032;52.510;7.342;2022-12-07T03:11:14;16.98;;;2.72;;
26325;SDS011;14032;52.510;7.342;2022-12-07T03:13:49;13.02;;;2.38;;
26325;SDS011;14032;52.510;7.342;2022-12-07T03:16:23;18.85;;;2.65;;
26325;SDS011;14032;52.510;7.342;2022-12-07T03:18:58;17.60;;;2.28;;
26325;SDS011;14032;52.510;7.342;2022-12-07T03:21:46;15.25;;;2.10;;
26325;SDS011;14032;52.510;7.342;2022-12-07T03:24:20;9.48;;;2.40;;
26325;SDS011;14032;52.510;7.342;2022-12-07T03:26:52;12.90;;;2.10;;
26325;SDS011;14032;52.510;7.342;2022-12-07T03:29:27;10.43;;;1.95;;
26325;SDS011;14032;52.510;7.342;2022-12-07T03:32:01;13.40;;;2.53;;
26325;SDS011;14032;52.510;7.342;2022-12-07T03:40:10;11.88;;;2.67;;
26325;SDS011;14032;52.510;7.342;2022-12-07T03:42:56;12.73;;;2.40;;
26325;SDS011;14032;52.510;7.342;2022-12-07T03:45:26;14.32;;;2.72;;
26325;SDS011;14032;52.510;7.342;2022-12-07T03:51:18;13.30;;;2.38;;
26325;SDS011;14032;52.510;7.342;2022-12-07T03:54:05;8.50;;;3.00;;
26325;SDS011;14032;52.510;7.342;2022-12-07T03:56:56;11.52;;;2.58;;
26325;SDS011;14032;52.510;7.342;2022-12-07T03:59:23;13.88;;;3.15;;
26325;SDS011;14032;52.510;7.342;2022-12-07T04:01:54;16.15;;;3.00;;
26325;SDS011;14032;52.510;7.342;2022-12-07T04:04:22;14.18;;;2.88;;
26325;SDS011;14032;52.510;7.342;2022-12-07T04:06:49;15.63;;;2.83;;
26325;SDS011;14032;52.510;7.342;2022-12-07T04:09:15;13.07;;;2.38;;
26325;SDS011;14032;52.510;7.342;2022-12-07T04:11:42;14.45;;;2.95;;
26325;SDS011;14032;52.510;7.342;2022-12-07T04:14:08;15.07;;;3.00;;
26325;SDS011;14032;52.510;7.342;2022-12-07T04:16:53;18.65;;;3.10;;
26325;SDS011;14032;52.510;7.342;2022-12-07T04:19:23;11.55;;;2.30;;
26325;SDS011;14032;52.510;7.342;2022-12-07T04:21:54;11.55;;;2.55;;
26325;SDS011;14032;52.510;7.342;2022-12-07T04:24:21;16.48;;;2.40;;
26325;SDS011;14032;52.510;7.342;2022-12-07T04:26:47;20.67;;;2.90;;
26325;SDS011;14032;52.510;7.342;2022-12-07T04:29:13;13.38;;;2.35;;
26325;SDS011;14032;52.510;7.342;2022-12-07T04:31:39;15.30;;;2.53;;
26325;SDS011;14032;52.510;7.342;2022-12-07T04:34:05;14.23;;;2.40;;
26325;SDS011;14032;52.510;7.342;2022-12-07T04:36:32;14.15;;;2.22;;
26325;SDS011;14032;52.510;7.342;2022-12-07T04:38:58;14.75;;;2.40;;
26325;SDS011;14032;52.510;7.342;2022-12-07T04:41:24;14.57;;;2.38;;
26325;SDS011;14032;52.510;7.342;2022-12-07T04:43:58;15.48;;;1.60;;
26325;SDS011;14032;52.510;7.342;2022-12-07T04:46:25;22.70;;;2.65;;
26325;SDS011;14032;52.510;7.342;2022-12-07T04:48:52;17.83;;;1.50;;
26325;SDS011;14032;52.510;7.342;2022-12-07T04:51:20;13.88;;;2.03;;
26325;SDS011;14032;52.510;7.342;2022-12-07T04:53:50;12.63;;;2.03;;
26325;SDS011;14032;52.510;7.342;2022-12-07T04:56:17;11.07;;;1.75;;
26325;SDS011;14032;52.510;7.342;2022-12-07T04:58:43;13.50;;;2.00;;
26325;SDS011;14032;52.510;7.342;2022-12-07T05:01:10;11.35;;;2.10;;
26325;SDS011;14032;52.510;7.342;2022-12-07T05:03:36;13.45;;;2.00;;
26325;SDS011;14032;52.510;7.342;2022-12-07T05:06:03;8.40;;;2.05;;
26325;SDS011;14032;52.510;7.342;2022-12-07T05:08:29;18.58;;;2.30;;
26325;SDS011;14032;52.510;7.342;2022-12-07T05:10:55;14.60;;;2.70;;
26325;SDS011;14032;52.510;7.342;2022-12-07T05:13:20;13.45;;;2.50;;
26325;SDS011;14032;52.510;7.342;2022-12-07T05:15:47;16.08;;;2.40;;
26325;SDS011;14032;52.510;7.342;2022-12-07T05:18:13;14.80;;;2.08;;
26325;SDS011;14032;52.510;7.342;2022-12-07T05:20:39;11.00;;;1.63;;
26325;SDS011;14032;52.510;7.342;2022-12-07T05:23:05;10.52;;;1.48;;
26325;SDS011;14032;52.510;7.342;2022-12-07T05:25:31;12.52;;;1.92;;
26325;SDS011;14032;52.510;7.342;2022-12-07T05:27:56;13.75;;;2.20;;
26325;SDS011;14032;52.510;7.342;2022-12-07T05:30:23;10.73;;;2.58;;
26325;SDS011;14032;52.510;7.342;2022-12-07T05:32:49;15.07;;;2.58;;
26325;SDS011;14032;52.510;7.342;2022-12-07T05:35:15;12.60;;;2.78;;
26325;SDS011;14032;52.510;7.342;2022-12-07T05:37:41;6.75;;;1.75;;
26325;SDS011;14032;52.510;7.342;2022-12-07T05:40:07;10.75;;;2.08;;
26325;SDS011;14032;52.510;7.342;2022-12-07T05:42:33;9.57;;;1.88;;
26325;SDS011;14032;52.510;7.342;2022-12-07T05:44:59;16.40;;;2.35;;
26325;SDS011;14032;52.510;7.342;2022-12-07T05:47:24;13.23;;;2.60;;
26325;SDS011;14032;52.510;7.342;2022-12-07T05:49:50;17.10;;;3.37;;
26325;SDS011;14032;52.510;7.342;2022-12-07T05:52:16;11.85;;;2.40;;
26325;SDS011;14032;52.510;7.342;2022-12-07T05:54:41;9.98;;;2.13;;
26325;SDS011;14032;52.510;7.342;2022-12-07T05:57:07;15.20;;;2.10;;
26325;SDS011;14032;52.510;7.342;2022-12-07T05:59:32;6.88;;;2.40;;
26325;SDS011;14032;52.510;7.342;2022-12-07T06:01:59;12.57;;;2.15;;
26325;SDS011;14032;52.510;7.342;2022-12-07T06:04:30;9.52;;;2.42;;
26325;SDS011;14032;52.510;7.342;2022-12-07T06:06:58;14.38;;;2.30;;
26325;SDS011;14032;52.510;7.342;2022-12-07T06:09:24;10.35;;;2.85;;
26325;SDS011;14032;52.510;7.342;2022-12-07T06:11:51;14.68;;;2.70;;
26325;SDS011;14032;52.510;7.342;2022-12-07T06:14:36;15.30;;;2.28;;
26325;SDS011;14032;52.510;7.342;2022-12-07T06:17:02;17.42;;;2.85;;
26325;SDS011;14032;52.510;7.342;2022-12-07T06:19:28;13.32;;;2.10;;
26325;SDS011;14032;52.510;7.342;2022-12-07T06:21:53;14.93;;;2.03;;
26325;SDS011;14032;52.510;7.342;2022-12-07T06:24:19;13.40;;;1.90;;
26325;SDS011;14032;52.510;7.342;2022-12-07T06:26:45;21.60;;;2.33;;
26325;SDS011;14032;52.510;7.342;2022-12-07T06:29:11;15.50;;;3.38;;
26325;SDS011;14032;52.510;7.342;2022-12-07T06:31:38;19.85;;;5.20;;
26325;SDS011;14032;52.510;7.342;2022-12-07T06:34:04;18.15;;;5.78;;
26325;SDS011;14032;52.510;7.342;2022-12-07T06:36:33;19.13;;;4.53;;
26325;SDS011;14032;52.510;7.342;2022-12-07T06:39:00;18.10;;;3.78;;
26325;SDS011;14032;52.510;7.342;2022-12-07T06:41:26;9.15;;;2.38;;
26325;SDS011;14032;52.510;7.342;2022-12-07T06:43:51;17.55;;;2.65;;
26325;SDS011;14032;52.510;7.342;2022-12-07T06:46:17;14.77;;;2.45;;
26325;SDS011;14032;52.510;7.342;2022-12-07T06:48:43;17.55;;;2.85;;
26325;SDS011;14032;52.510;7.342;2022-12-07T06:51:09;19.42;;;3.90;;
26325;SDS011;14032;52.510;7.342;2022-12-07T06:53:34;17.38;;;2.80;;
26325;SDS011;14032;52.510;7.342;2022-12-07T06:56:01;17.27;;;2.90;;
26325;SDS011;14032;52.510;7.342;2022-12-07T06:58:26;19.35;;;2.53;;
26325;SDS011;14032;52.510;7.342;2022-12-07T07:00:52;11.13;;;2.45;;
26325;SDS011;14032;52.510;7.342;2022-12-07T07:03:18;12.93;;;2.95;;
26325;SDS011;14032;52.510;7.342;2022-12-07T07:05:43;20.77;;;3.67;;
26325;SDS011;14032;52.510;7.342;2022-12-07T07:08:09;19.05;;;2.70;;
26325;SDS011;14032;52.510;7.342;2022-12-07T07:10:36;16.75;;;2.25;;
26325;SDS011;14032;52.510;7.342;2022-12-07T07:13:02;15.80;;;2.95;;
26325;SDS011;14032;52.510;7.342;2022-12-07T07:15:29;13.18;;;2.35;;
26325;SDS011;14032;52.510;7.342;2022-12-07T07:17:54;17.35;;;2.70;;
26325;SDS011;14032;52.510;7.342;2022-12-07T07:20:20;8.98;;;3.60;;
26325;SDS011;14032;52.510;7.342;2022-12-07T07:22:47;12.63;;;2.97;;
26325;SDS011;14032;52.510;7.342;2022-12-07T07:25:14;13.05;;;3.10;;
26325;SDS011;14032;52.510;7.342;2022-12-07T07:27:39;16.15;;;3.75;;
26325;SDS011;14032;52.510;7.342;2022-12-07T07:30:06;18.05;;;3.80;;
26325;SDS011;14032;52.510;7.342;2022-12-07T07:32:32;13.75;;;4.35;;
26325;SDS011;14032;52.510;7.342;2022-12-07T07:34:58;18.23;;;5.50;;
26325;SDS011;14032;52.510;7.342;2022-12-07T07:37:24;28.85;;;6.35;;
26325;SDS011;14032;52.510;7.342;2022-12-07T07:39:49;18.30;;;5.72;;
26325;SDS011;14032;52.510;7.342;2022-12-07T07:42:15;21.58;;;6.47;;
26325;SDS011;14032;52.510;7.342;2022-12-07T07:44:40;26.15;;;7.38;;
26325;SDS011;14032;52.510;7.342;2022-12-07T07:47:06;43.97;;;7.13;;
26325;SDS011;14032;52.510;7.342;2022-12-07T07:49:32;27.92;;;7.28;;
26325;SDS011;14032;52.510;7.342;2022-12-07T07:51:57;26.13;;;6.35;;
26325;SDS011;14032;52.510;7.342;2022-12-07T07:54:23;27.75;;;5.65;;
26325;SDS011;14032;52.510;7.342;2022-12-07T07:56:48;18.98;;;3.50;;
26325;SDS011;14032;52.510;7.342;2022-12-07T07:59:14;13.93;;;3.78;;
26325;SDS011;14032;52.510;7.342;2022-12-07T08:01:40;17.92;;;2.97;;
26325;SDS011;14032;52.510;7.342;2022-12-07T08:04:06;9.75;;;2.47;;
26325;SDS011;14032;52.510;7.342;2022-12-07T08:06:31;16.30;;;4.00;;
26325;SDS011;14032;52.510;7.342;2022-12-07T08:08:57;20.42;;;5.18;;
26325;SDS011;14032;52.510;7.342;2022-12-07T08:11:23;14.13;;;3.95;;
26325;SDS011;14032;52.510;7.342;2022-12-07T08:13:49;13.13;;;3.28;;
26325;SDS011;14032;52.510;7.342;2022-12-07T08:16:14;14.30;;;2.50;;
26325;SDS011;14032;52.510;7.342;2022-12-07T08:18:41;17.30;;;2.55;;
26325;SDS011;14032;52.510;7.342;2022-12-07T08:21:08;16.17;;;2.80;;
26325;SDS011;14032;52.510;7.342;2022-12-07T08:23:36;12.93;;;2.85;;
26325;SDS011;14032;52.510;7.342;2022-12-07T08:26:02;22.08;;;2.80;;
26325;SDS011;14032;52.510;7.342;2022-12-07T08:28:29;20.27;;;3.45;;
26325;SDS011;14032;52.510;7.342;2022-12-07T08:31:01;15.40;;;4.22;;
26325;SDS011;14032;52.510;7.342;2022-12-07T08:33:32;13.95;;;3.45;;
26325;SDS011;14032;52.510;7.342;2022-12-07T08:36:05;11.90;;;3.78;;
26325;SDS011;14032;52.510;7.342;2022-12-07T08:38:33;13.02;;;3.28;;
26325;SDS011;14032;52.510;7.342;2022-12-07T08:40:59;18.95;;;5.22;;
26325;SDS011;14032;52.510;7.342;2022-12-07T08:43:25;15.43;;;6.07;;
26325;SDS011;14032;52.510;7.342;2022-12-07T08:45:53;23.20;;;6.43;;
26325;SDS011;14032;52.510;7.342;2022-12-07T08:48:28;15.23;;;5.35;;
26325;SDS011;14032;52.510;7.342;2022-12-07T08:50:55;24.98;;;4.22;;
26325;SDS011;14032;52.510;7.342;2022-12-07T08:53:20;15.93;;;4.72;;
26325;SDS011;14032;52.510;7.342;2022-12-07T08:55:47;16.20;;;4.97;;
26325;SDS011;14032;52.510;7.342;2022-12-07T08:58:13;14.82;;;4.50;;
26325;SDS011;14032;52.510;7.342;2022-12-07T09:00:39;14.85;;;3.72;;
26325;SDS011;14032;52.510;7.342;2022-12-07T09:03:04;16.27;;;3.40;;
26325;SDS011;14032;52.510;7.342;2022-12-07T09:05:31;12.52;;;3.08;;
26325;SDS011;14032;52.510;7.342;2022-12-07T09:07:59;17.17;;;3.80;;
26325;SDS011;14032;52.510;7.342;2022-12-07T09:10:26;15.15;;;4.00;;
26325;SDS011;14032;52.510;7.342;2022-12-07T09:12:53;15.18;;;4.43;;
26325;SDS011;14032;52.510;7.342;2022-12-07T09:15:18;16.83;;;3.45;;
26325;SDS011;14032;52.510;7.342;2022-12-07T09:17:44;10.45;;;3.38;;
26325;SDS011;14032;52.510;7.342;2022-12-07T09:20:10;18.05;;;3.75;;
26325;SDS011;14032;52.510;7.342;2022-12-07T09:22:36;10.25;;;2.67;;
26325;SDS011;14032;52.510;7.342;2022-12-07T09:25:02;11.85;;;2.67;;
26325;SDS011;14032;52.510;7.342;2022-12-07T09:27:28;19.80;;;3.33;;
26325;SDS011;14032;52.510;7.342;2022-12-07T09:29:54;14.35;;;4.45;;
26325;SDS011;14032;52.510;7.342;2022-12-07T09:32:20;14.55;;;3.08;;
26325;SDS011;14032;52.510;7.342;2022-12-07T09:34:46;15.13;;;2.72;;
26325;SDS011;14032;52.510;7.342;2022-12-07T09:37:12;18.10;;;2.95;;
26325;SDS011;14032;52.510;7.342;2022-12-07T09:39:38;15.45;;;2.60;;
26325;SDS011;14032;52.510;7.342;2022-12-07T09:42:04;17.40;;;2.47;;
26325;SDS011;14032;52.510;7.342;2022-12-07T09:44:32;16.85;;;3.25;;
26325;SDS011;14032;52.510;7.342;2022-12-07T09:46:59;19.13;;;3.17;;
26325;SDS011;14032;52.510;7.342;2022-12-07T09:49:25;14.77;;;3.78;;
26325;SDS011;14032;52.510;7.342;2022-12-07T09:51:59;13.15;;;4.70;;
26325;SDS011;14032;52.510;7.342;2022-12-07T09:54:44;14.60;;;4.32;;
26325;SDS011;14032;52.510;7.342;2022-12-07T09:57:15;15.75;;;3.53;;
26325;SDS011;14032;52.510;7.342;2022-12-07T09:59:41;14.30;;;3.88;;
26325;SDS011;14032;52.510;7.342;2022-12-07T10:02:32;14.00;;;3.72;;
26325;SDS011;14032;52.510;7.342;2022-12-07T10:05:06;19.13;;;5.07;;
26325;SDS011;14032;52.510;7.342;2022-12-07T10:07:36;18.45;;;3.88;;
26325;SDS011;14032;52.510;7.342;2022-12-07T10:10:03;17.70;;;2.45;;
26325;SDS011;14032;52.510;7.342;2022-12-07T10:12:42;10.32;;;2.22;;
26325;SDS011;14032;52.510;7.342;2022-12-07T10:15:20;16.40;;;3.17;;
26325;SDS011;14032;52.510;7.342;2022-12-07T10:17:47;11.48;;;3.15;;
26325;SDS011;14032;52.510;7.342;2022-12-07T10:20:19;10.93;;;3.20;;
26325;SDS011;14032;52.510;7.342;2022-12-07T10:22:54;15.43;;;2.80;;
26325;SDS011;14032;52.510;7.342;2022-12-07T10:25:32;9.38;;;3.90;;
26325;SDS011;14032;52.510;7.342;2022-12-07T10:28:16;14.07;;;3.53;;
26325;SDS011;14032;52.510;7.342;2022-12-07T10:35:53;15.40;;;2.92;;
26325;SDS011;14032;52.510;7.342;2022-12-07T10:38:19;8.70;;;2.30;;
26325;SDS011;14032;52.510;7.342;2022-12-07T10:40:45;12.50;;;2.65;;
26325;SDS011;14032;52.510;7.342;2022-12-07T10:48:45;12.25;;;3.05;;
26325;SDS011;14032;52.510;7.342;2022-12-07T11:00:04;14.73;;;2.42;;
26325;SDS011;14032;52.510;7.342;2022-12-07T11:08:02;11.98;;;2.85;;
26325;SDS011;14032;52.510;7.342;2022-12-07T11:10:51;13.13;;;3.45;;
26325;SDS011;14032;52.510;7.342;2022-12-07T11:16:17;12.88;;;3.17;;
26325;SDS011;14032;52.510;7.342;2022-12-07T11:18:53;9.73;;;1.80;;
26325;SDS011;14032;52.510;7.342;2022-12-07T11:24:16;12.73;;;2.50;;
26325;SDS011;14032;52.510;7.342;2022-12-07T11:29:53;11.82;;;1.90;;
26325;SDS011;14032;52.510;7.342;2022-12-07T11:40:40;9.63;;;2.05;;
26325;SDS011;14032;52.510;7.342;2022-12-07T11:46:04;12.27;;;1.73;;
26325;SDS011;14032;52.510;7.342;2022-12-07T11:48:35;11.18;;;2.05;;
26325;SDS011;14032;52.510;7.342;2022-12-07T11:51:06;10.02;;;1.88;;
26325;SDS011;14032;52.510;7.342;2022-12-07T11:53:58;13.50;;;2.35;;
26325;SDS011;14032;52.510;7.342;2022-12-07T11:56:24;14.90;;;2.45;;
26325;SDS011;14032;52.510;7.342;2022-12-07T12:06:36;7.68;;;2.13;;
26325;SDS011;14032;52.510;7.342;2022-12-07T12:09:05;13.43;;;1.70;;
26325;SDS011;14032;52.510;7.342;2022-12-07T12:23:00;11.95;;;1.95;;
26325;SDS011;14032;52.510;7.342;2022-12-07T12:25:36;12.88;;;1.98;;
26325;SDS011;14032;52.510;7.342;2022-12-07T12:33:30;9.52;;;2.42;;
26325;SDS011;14032;52.510;7.342;2022-12-07T12:38:51;13.75;;;1.90;;
26325;SDS011;14032;52.510;7.342;2022-12-07T12:44:38;14.38;;;1.88;;
26325;SDS011;14032;52.510;7.342;2022-12-07T12:52:00;8.15;;;1.85;;
26325;SDS011;14032;52.510;7.342;2022-12-07T12:54:38;13.68;;;2.33;;
26325;SDS011;14032;52.510;7.342;2022-12-07T12:57:27;14.38;;;3.25;;
26325;SDS011;14032;52.510;7.342;2022-12-07T12:59:57;9.77;;;1.95;;
26325;SDS011;14032;52.510;7.342;2022-12-07T13:02:35;12.90;;;2.13;;
26325;SDS011;14032;52.510;7.342;2022-12-07T13:10:21;6.45;;;1.60;;
26325;SDS011;14032;52.510;7.342;2022-12-07T13:13:00;11.73;;;3.72;;
26325;SDS011;14032;52.510;7.342;2022-12-07T13:17:59;11.15;;;2.00;;
26325;SDS011;14032;52.510;7.342;2022-12-07T13:20:46;10.32;;;1.50;;
26325;SDS011;14032;52.510;7.342;2022-12-07T13:23:13;9.07;;;1.70;;
26325;SDS011;14032;52.510;7.342;2022-12-07T13:25:45;10.05;;;1.50;;
26325;SDS011;14032;52.510;7.342;2022-12-07T13:28:18;12.10;;;2.28;;
26325;SDS011;14032;52.510;7.342;2022-12-07T13:31:00;9.82;;;1.67;;
26325;SDS011;14032;52.510;7.342;2022-12-07T13:33:47;11.98;;;2.03;;
26325;SDS011;14032;52.510;7.342;2022-12-07T13:36:23;10.77;;;1.33;;
26325;SDS011;14032;52.510;7.342;2022-12-07T13:38:58;8.13;;;1.60;;
26325;SDS011;14032;52.510;7.342;2022-12-07T13:41:26;12.60;;;1.83;;
26325;SDS011;14032;52.510;7.342;2022-12-07T13:43:54;14.55;;;2.20;;
26325;SDS011;14032;52.510;7.342;2022-12-07T13:46:33;13.50;;;2.35;;
26325;SDS011;14032;52.510;7.342;2022-12-07T13:49:24;9.32;;;1.65;;
26325;SDS011;14032;52.510;7.342;2022-12-07T13:51:50;11.00;;;2.33;;
26325;SDS011;14032;52.510;7.342;2022-12-07T13:54:17;6.78;;;1.85;;
26325;SDS011;14032;52.510;7.342;2022-12-07T13:56:43;13.20;;;1.42;;
26325;SDS011;14032;52.510;7.342;2022-12-07T14:01:46;11.15;;;2.38;;
26325;SDS011;14032;52.510;7.342;2022-12-07T14:04:32;13.10;;;1.73;;
26325;SDS011;14032;52.510;7.342;2022-12-07T14:07:00;14.25;;;1.98;;
26325;SDS011;14032;52.510;7.342;2022-12-07T14:09:52;12.52;;;2.22;;
26325;SDS011;14032;52.510;7.342;2022-12-07T14:12:19;9.13;;;2.03;;
26325;SDS011;14032;52.510;7.342;2022-12-07T14:14:48;12.43;;;2.03;;
26325;SDS011;14032;52.510;7.342;2022-12-07T14:19:53;12.50;;;2.20;;
26325;SDS011;14032;52.510;7.342;2022-12-07T14:22:26;14.77;;;2.20;;
26325;SDS011;14032;52.510;7.342;2022-12-07T14:27:53;9.07;;;1.77;;
26325;SDS011;14032;52.510;7.342;2022-12-07T14:30:21;12.38;;;2.08;;
26325;SDS011;14032;52.510;7.342;2022-12-07T14:32:50;14.80;;;2.33;;
26325;SDS011;14032;52.510;7.342;2022-12-07T14:35:19;10.95;;;2.38;;
26325;SDS011;14032;52.510;7.342;2022-12-07T14:37:45;10.18;;;1.98;;
26325;SDS011;14032;52.510;7.342;2022-12-07T14:40:17;11.57;;;3.70;;
26325;SDS011;14032;52.510;7.342;2022-12-07T14:42:45;11.35;;;2.95;;
26325;SDS011;14032;52.510;7.342;2022-12-07T14:45:13;16.80;;;2.65;;
26325;SDS011;14032;52.510;7.342;2022-12-07T14:47:43;8.98;;;1.88;;
26325;SDS011;14032;52.510;7.342;2022-12-07T14:50:14;18.05;;;3.60;;
26325;SDS011;14032;52.510;7.342;2022-12-07T14:52:41;13.35;;;2.92;;
26325;SDS011;14032;52.510;7.342;2022-12-07T14:57:48;11.18;;;2.28;;
26325;SDS011;14032;52.510;7.342;2022-12-07T15:00:14;14.32;;;2.95;;
26325;SDS011;14032;52.510;7.342;2022-12-07T15:02:42;16.38;;;2.50;;
26325;SDS011;14032;52.510;7.342;2022-12-07T15:05:08;13.80;;;2.63;;
26325;SDS011;14032;52.510;7.342;2022-12-07T15:07:34;19.65;;;4.93;;
26325;SDS011;14032;52.510;7.342;2022-12-07T15:09:59;12.95;;;3.10;;
26325;SDS011;14032;52.510;7.342;2022-12-07T15:12:25;11.15;;;3.35;;
26325;SDS011;14032;52.510;7.342;2022-12-07T15:14:51;12.02;;;2.50;;
26325;SDS011;14032;52.510;7.342;2022-12-07T15:17:17;9.75;;;2.92;;
26325;SDS011;14032;52.510;7.342;2022-12-07T15:19:42;11.82;;;1.95;;
26325;SDS011;14032;52.510;7.342;2022-12-07T15:22:08;7.15;;;2.08;;
26325;SDS011;14032;52.510;7.342;2022-12-07T15:24:35;12.70;;;2.33;;
26325;SDS011;14032;52.510;7.342;2022-12-07T15:27:02;14.95;;;2.70;;
26325;SDS011;14032;52.510;7.342;2022-12-07T15:29:28;11.35;;;2.55;;
26325;SDS011;14032;52.510;7.342;2022-12-07T15:31:54;11.50;;;2.13;;
26325;SDS011;14032;52.510;7.342;2022-12-07T15:34:20;10.85;;;1.80;;
26325;SDS011;14032;52.510;7.342;2022-12-07T15:36:46;8.95;;;1.67;;
26325;SDS011;14032;52.510;7.342;2022-12-07T15:39:12;9.50;;;1.80;;
26325;SDS011;14032;52.510;7.342;2022-12-07T15:41:37;6.00;;;1.73;;
26325;SDS011;14032;52.510;7.342;2022-12-07T15:44:03;7.63;;;2.60;;
26325;SDS011;14032;52.510;7.342;2022-12-07T15:46:48;11.38;;;1.63;;
26325;SDS011;14032;52.510;7.342;2022-12-07T15:49:15;6.30;;;1.67;;
26325;SDS011;14032;52.510;7.342;2022-12-07T15:51:43;6.78;;;1.92;;
26325;SDS011;14032;52.510;7.342;2022-12-07T15:54:19;6.10;;;1.98;;
26325;SDS011;14032;52.510;7.342;2022-12-07T15:56:47;7.57;;;2.50;;
26325;SDS011;14032;52.510;7.342;2022-12-07T15:59:13;9.65;;;3.55;;
26325;SDS011;14032;52.510;7.342;2022-12-07T16:01:39;10.18;;;3.30;;
26325;SDS011;14032;52.510;7.342;2022-12-07T16:04:05;7.22;;;3.65;;
26325;SDS011;14032;52.510;7.342;2022-12-07T16:06:31;9.30;;;3.92;;
26325;SDS011;14032;52.510;7.342;2022-12-07T16:08:56;11.82;;;5.07;;
26325;SDS011;14032;52.510;7.342;2022-12-07T16:11:22;9.98;;;5.10;;
26325;SDS011;14032;52.510;7.342;2022-12-07T16:13:48;12.98;;;5.80;;
26325;SDS011;14032;52.510;7.342;2022-12-07T16:16:15;12.32;;;6.55;;
26325;SDS011;14032;52.510;7.342;2022-12-07T16:18:41;16.77;;;7.28;;
26325;SDS011;14032;52.510;7.342;2022-12-07T16:21:08;15.15;;;7.97;;
26325;SDS011;14032;52.510;7.342;2022-12-07T16:23:33;16.90;;;7.05;;
26325;SDS011;14032;52.510;7.342;2022-12-07T16:26:07;14.75;;;6.28;;
26325;SDS011;14032;52.510;7.342;2022-12-07T16:31:04;13.68;;;3.70;;
26325;SDS011;14032;52.510;7.342;2022-12-07T16:33:32;10.00;;;3.28;;
26325;SDS011;14032;52.510;7.342;2022-12-07T16:36:02;10.00;;;3.38;;
26325;SDS011;14032;52.510;7.342;2022-12-07T16:38:29;10.00;;;3.17;;
26325;SDS011;14032;52.510;7.342;2022-12-07T16:40:54;13.88;;;3.13;;
26325;SDS011;14032;52.510;7.342;2022-12-07T16:43:20;9.65;;;3.17;;
26325;SDS011;14032;52.510;7.342;2022-12-07T16:45:46;13.23;;;4.05;;
26325;SDS011;14032;52.510;7.342;2022-12-07T16:48:12;16.15;;;5.18;;
26325;SDS011;14032;52.510;7.342;2022-12-07T16:50:39;25.75;;;4.22;;
26325;SDS011;14032;52.510;7.342;2022-12-07T16:53:06;12.27;;;3.25;;
26325;SDS011;14032;52.510;7.342;2022-12-07T16:55:36;17.85;;;4.40;;
26325;SDS011;14032;52.510;7.342;2022-12-07T16:58:05;9.70;;;3.38;;
26325;SDS011;14032;52.510;7.342;2022-12-07T17:00:31;17.40;;;3.45;;